Ratibor, Texas
Current Conditions -  °F | °C
As of 5:15 PM on Tuesday 25 Nov 2014 (Local Time) from KTPL Reporting Station
Clear Clear  
Wind Chill: 61°   Ceiling: Unl
Heat Index: 61°   Visibility: 10mi
Dew Point: 27°   Wind: 5mph
Humidity: 27%   Direction: 270°W
Pressure: 30.19"   Gusts: NA
Location:  31.0795°N, 97.3287°W
Report Text: KTPL 252315Z AUTO 27004KT 10SM CLR 16/M03 A3019 RMK AO1
Loading
Personal Weather Stations






























Interactive Weather Map New forecast layout! Learn more

10-Day Weather Forecast

Advertisements
Track Severe Weather on mobile